TimeEST,TemperatureF,Dew PointF,Humidity,Sea Level PressureIn,VisibilityMPH,Wind Direction,Wind SpeedMPH,Gust SpeedMPH,PrecipitationIn,Events,Conditions,WindDirDegrees,DateUTC
12:53 AM,32.0,21.9,66,29.91,10.0,Calm,Calm,-,N/A,,Clear,0,2014-03-08 05:53:00
1:53 AM,30.0,21.9,72,29.91,10.0,Calm,Calm,-,N/A,,Partly Cloudy,0,2014-03-08 06:53:00
3:53 AM,26.1,21.0,81,29.88,10.0,Calm,Calm,-,N/A,,Clear,0,2014-03-08 08:53:00
4:53 AM,33.1,25.0,72,29.87,10.0,WSW,4.6,-,N/A,,Clear,250,2014-03-08 09:53:00
5:53 AM,32.0,25.0,75,29.90,10.0,WSW,3.5,-,N/A,,Clear,250,2014-03-08 10:53:00
6:53 AM,28.9,24.1,82,29.90,7.0,Calm,Calm,-,N/A,,Overcast,0,2014-03-08 11:53:00
7:53 AM,34.0,25.0,70,29.93,7.0,West,6.9,-,N/A,,Overcast,270,2014-03-08 12:53:00
8:53 AM,34.0,26.1,73,29.93,4.0,WNW,6.9,-,0.00,Snow,Light Snow,290,2014-03-08 13:53:00
9:22 AM,34.0,26.1,73,29.87,6.0,West,5.8,-,0.00,,Haze,270,2014-03-08 14:22:00
9:49 AM,33.8,26.6,75,29.87,6.0,West,9.2,-,0.00,,Haze,280,2014-03-08 14:49:00
9:53 AM,34.0,26.1,73,29.93,6.0,WNW,8.1,-,0.00,,Haze,290,2014-03-08 14:53:00
10:53 AM,34.0,27.0,75,29.94,5.0,West,11.5,-,N/A,,Haze,280,2014-03-08 15:53:00
11:21 AM,33.1,28.0,82,29.88,3.0,West,9.2,21.9,0.00,,Overcast,280,2014-03-08 16:21:00
11:53 AM,34.0,28.0,79,29.94,3.0,West,8.1,-,0.00,,Haze,260,2014-03-08 16:53:00
12:14 PM,34.0,28.0,79,29.88,4.0,West,9.2,-,N/A,,Haze,280,2014-03-08 17:14:00
12:53 PM,34.0,28.0,79,29.94,3.0,West,6.9,-,0.00,Snow,Light Snow,270,2014-03-08 17:53:00
1:40 PM,33.1,28.0,82,29.88,2.5,West,9.2,-,0.00,Snow,Light Snow,280,2014-03-08 18:40:00
1:53 PM,33.1,27.0,78,29.94,3.0,WNW,10.4,-,0.00,Snow,Light Snow,300,2014-03-08 18:53:00
2:22 PM,32.0,27.0,82,29.88,1.8,WNW,11.5,-,0.00,Snow,Light Snow,290,2014-03-08 19:22:00
2:46 PM,32.0,27.0,82,29.88,2.5,WNW,10.4,-,0.00,Snow,Light Snow,300,2014-03-08 19:46:00
2:53 PM,32.0,27.0,82,29.94,4.0,WNW,12.7,-,0.00,,Haze,300,2014-03-08 19:53:00
3:53 PM,30.9,26.1,82,29.95,4.0,NW,11.5,-,0.00,,Haze,310,2014-03-08 20:53:00
4:36 PM,30.9,26.1,82,29.89,2.0,WNW,8.1,-,0.00,Snow,Light Snow,290,2014-03-08 21:36:00
4:53 PM,30.9,26.1,82,29.95,2.0,WNW,9.2,-,0.00,Snow,Light Snow,300,2014-03-08 21:53:00
5:14 PM,30.0,26.1,85,29.90,1.2,NW,8.1,-,0.00,Snow,Light Snow,310,2014-03-08 22:14:00
5:29 PM,30.0,26.1,85,29.91,0.8,WNW,8.1,-,0.00,Snow,Light Snow,290,2014-03-08 22:29:00
5:48 PM,30.2,26.6,86,29.91,0.8,West,6.9,-,0.00,Snow,Light Snow,280,2014-03-08 22:48:00
5:53 PM,30.0,26.1,85,29.97,0.8,WNW,9.2,-,0.00,Snow,Light Snow,290,2014-03-08 22:53:00
6:03 PM,28.9,26.1,89,29.92,0.8,WNW,9.2,-,0.00,Snow,Light Snow,300,2014-03-08 23:03:00
6:24 PM,28.9,26.1,89,29.92,1.8,WNW,8.1,-,0.00,Snow,Light Snow,300,2014-03-08 23:24:00
6:31 PM,28.9,25.0,85,29.93,2.5,NW,9.2,-,0.00,Snow,Light Snow,310,2014-03-08 23:31:00
6:41 PM,28.9,24.1,82,29.93,3.0,WNW,12.7,-,0.00,Snow,Light Snow,300,2014-03-08 23:41:00
6:53 PM,28.9,24.1,82,29.99,3.0,West,11.5,-,0.00,Snow,Light Snow,280,2014-03-08 23:53:00
7:01 PM,28.9,24.1,82,29.93,3.0,West,8.1,-,0.00,Snow,Light Snow,280,2014-03-09 00:01:00
7:17 PM,28.9,24.1,82,29.93,2.0,WNW,8.1,-,0.00,Snow,Light Snow,300,2014-03-09 00:17:00
7:32 PM,28.0,23.0,81,29.93,3.0,WNW,9.2,-,0.00,Snow,Light Snow,300,2014-03-09 00:32:00
7:38 PM,28.0,23.0,81,29.93,4.0,WNW,10.4,-,0.01,,Haze,300,2014-03-09 00:38:00
7:53 PM,28.0,23.0,81,29.98,6.0,WNW,8.1,-,0.01,,Haze,300,2014-03-09 00:53:00
8:03 PM,28.0,23.0,81,29.92,6.0,NW,10.4,-,N/A,,Haze,310,2014-03-09 01:03:00
8:17 PM,28.0,23.0,81,29.93,6.0,WNW,10.4,-,N/A,,Haze,300,2014-03-09 01:17:00
8:32 PM,28.0,23.0,81,29.93,5.0,WNW,11.5,-,N/A,,Haze,300,2014-03-09 01:32:00
8:53 PM,27.0,23.0,85,29.99,4.0,NW,10.4,-,N/A,,Overcast,310,2014-03-09 01:53:00
9:53 PM,27.0,21.0,78,30.00,6.0,WNW,10.4,-,N/A,,Haze,300,2014-03-09 02:53:00
10:05 PM,26.1,21.0,81,29.94,7.0,NW,12.7,-,N/A,,Overcast,310,2014-03-09 03:05:00
10:33 PM,26.1,19.9,78,29.94,7.0,NW,8.1,-,N/A,,Overcast,310,2014-03-09 03:33:00
10:53 PM,25.0,18.0,75,30.00,8.0,NNW,13.8,-,N/A,,Overcast,330,2014-03-09 03:53:00
11:01 PM,25.0,18.0,75,29.94,8.0,NW,13.8,-,N/A,,Overcast,320,2014-03-09 04:01:00
11:53 PM,24.1,16.0,71,30.01,9.0,NW,11.5,-,N/A,,Overcast,320,2014-03-09 04:53:00